createdAt,value
2018-12-13T00:01:06.388Z,31.18
2018-12-13T00:02:06.417Z,31.38
2018-12-13T00:03:59.377Z,31.48
2018-12-13T00:04:59.399Z,31.46
2018-12-13T00:06:52.357Z,31.48
2018-12-13T00:07:52.371Z,31.37
2018-12-13T00:09:45.319Z,31.48
2018-12-13T00:10:45.348Z,31.38
2018-12-13T00:12:38.305Z,31.76
2018-12-13T00:13:38.327Z,31.37
2018-12-13T00:15:31.273Z,31.56
2018-12-13T00:16:32.739Z,31.56
2018-12-13T00:18:24.251Z,31.37
2018-12-13T00:19:24.274Z,31.37
2018-12-13T00:21:17.221Z,31.56
2018-12-13T00:22:17.252Z,31.46
2018-12-13T00:24:10.231Z,31.46
2018-12-13T00:25:10.253Z,31.37
2018-12-13T00:27:03.202Z,31.46
2018-12-13T00:28:03.232Z,31.37
2018-12-13T00:29:56.181Z,31.46
2018-12-13T00:30:56.205Z,31.37
2018-12-13T00:32:49.160Z,31.17
2018-12-13T00:33:49.180Z,31.46
2018-12-13T00:35:42.133Z,31.46
2018-12-13T00:36:42.160Z,31.46
2018-12-13T00:38:35.124Z,31.56
2018-12-13T00:39:35.136Z,31.65
2018-12-13T00:41:28.081Z,31.56
2018-12-13T00:42:28.110Z,31.37
2018-12-13T00:44:21.060Z,31.65
2018-12-13T00:45:21.083Z,31.46
2018-12-13T00:47:14.025Z,31.46
2018-12-13T00:48:14.055Z,31.65
2018-12-13T00:50:07.014Z,31.37
2018-12-13T00:51:07.032Z,31.27
2018-12-13T00:52:59.989Z,31.27
2018-12-13T00:54:00.006Z,31.37
2018-12-13T00:55:52.954Z,31.37
2018-12-13T00:56:52.983Z,31.56
2018-12-13T00:58:45.934Z,31.37
2018-12-13T00:59:45.956Z,31.37
2018-12-13T01:01:38.902Z,31.27
2018-12-13T01:02:38.929Z,31.37
2018-12-13T01:04:31.891Z,31.17
2018-12-13T01:05:31.909Z,31.17
2018-12-13T01:07:24.854Z,31.37
2018-12-13T01:08:24.883Z,31.17
2018-12-13T01:10:17.845Z,31.37
2018-12-13T01:11:17.866Z,31.17
2018-12-13T01:13:10.812Z,31.37
2018-12-13T01:14:10.842Z,31.46
2018-12-13T01:16:03.789Z,31.46
2018-12-13T01:17:03.810Z,31.37
2018-12-13T01:18:56.768Z,31.46
2018-12-13T01:19:56.788Z,31.27
2018-12-13T01:21:49.743Z,31.37
2018-12-13T01:22:49.766Z,31.46
2018-12-13T01:24:42.718Z,31.56
2018-12-13T01:25:42.741Z,31.27
2018-12-13T01:27:35.682Z,31.37
2018-12-13T01:28:35.713Z,31.46
2018-12-13T01:30:28.669Z,31.37
2018-12-13T01:31:28.691Z,31.46
2018-12-13T01:33:21.674Z,31.37
2018-12-13T01:34:21.665Z,31.37
2018-12-13T01:36:14.622Z,31.37
2018-12-13T01:37:14.642Z,31.46
2018-12-13T01:39:07.593Z,31.46
2018-12-13T01:40:07.616Z,31.27
2018-12-13T01:42:00.559Z,31.17
2018-12-13T01:43:00.589Z,31.46
2018-12-13T01:44:53.548Z,31.37
2018-12-13T01:45:53.567Z,31.56
2018-12-13T01:47:46.514Z,31.46
2018-12-13T01:48:46.542Z,31.37
2018-12-13T01:50:39.491Z,31.17
2018-12-13T01:51:39.516Z,31.46
2018-12-13T01:53:32.959Z,31.37
2018-12-13T01:54:32.989Z,31.27
2018-12-13T01:56:25.947Z,31.46
2018-12-13T01:57:25.971Z,31.17
2018-12-13T01:59:18.925Z,31.17
2018-12-13T02:00:18.943Z,31.37
2018-12-13T02:02:11.887Z,31.37
2018-12-13T02:03:11.914Z,31.37
2018-12-13T02:05:04.873Z,31.37
2018-12-13T02:06:04.886Z,31.37
2018-12-13T02:07:57.832Z,31.46
2018-12-13T02:08:57.863Z,31.37
2018-12-13T02:10:50.825Z,31.27
2018-12-13T02:11:50.845Z,31.27
2018-12-13T02:13:43.789Z,31.37
2018-12-13T02:14:43.819Z,31.07
2018-12-13T02:16:36.776Z,31.46
2018-12-13T02:17:36.794Z,31.17
2018-12-13T02:19:29.749Z,31.37
2018-12-13T02:20:29.774Z,31.37
2018-12-13T02:22:22.726Z,31.17
2018-12-13T02:23:22.746Z,31.37
2018-12-13T02:25:15.701Z,31.06
2018-12-13T02:26:15.721Z,31.07
2018-12-13T02:28:08.680Z,31.37
2018-12-13T02:29:08.701Z,31.07
2018-12-13T02:31:01.653Z,31.27
2018-12-13T02:32:01.673Z,31.35
2018-12-13T02:33:54.624Z,31.35
2018-12-13T02:34:54.650Z,31.35
2018-12-13T02:36:47.613Z,31.06
2018-12-13T02:37:47.627Z,31.17
2018-12-13T02:39:40.567Z,31.25
2018-12-13T02:40:40.597Z,31.35
2018-12-13T02:42:33.554Z,30.98
2018-12-13T02:43:33.573Z,31.07
2018-12-13T02:45:26.537Z,31.07
2018-12-13T02:46:26.545Z,31.15
2018-12-13T02:48:19.501Z,31.17
2018-12-13T02:49:19.528Z,30.96
2018-12-13T02:51:12.477Z,31.06
2018-12-13T02:52:12.499Z,31.06
2018-12-13T02:54:05.448Z,31.06
2018-12-13T02:55:05.473Z,30.87
2018-12-13T02:56:58.427Z,30.87
2018-12-13T02:57:58.451Z,31.15
2018-12-13T02:59:51.389Z,31.15
2018-12-13T03:00:51.418Z,31.25
2018-12-13T03:02:44.376Z,31.06
2018-12-13T03:03:44.393Z,31.06
2018-12-13T03:05:37.352Z,30.59
2018-12-13T03:06:37.373Z,30.96
2018-12-13T03:08:30.314Z,31.15
2018-12-13T03:09:30.344Z,30.96
2018-12-13T03:11:23.306Z,30.96
2018-12-13T03:12:23.319Z,30.96
2018-12-13T03:14:16.263Z,30.58
2018-12-13T03:15:16.290Z,30.58
2018-12-13T03:17:09.250Z,30.58
2018-12-13T03:18:09.270Z,30.96
2018-12-13T03:20:02.221Z,30.58
2018-12-13T03:21:02.252Z,30.48
2018-12-13T03:22:55.203Z,30.58
2018-12-13T03:23:55.224Z,30.58
2018-12-13T03:25:48.178Z,30.58
2018-12-13T03:26:48.198Z,30.58
2018-12-13T03:28:41.152Z,30.58
2018-12-13T03:29:41.179Z,30.87
2018-12-13T03:31:34.132Z,30.96
2018-12-13T03:32:34.168Z,30.58
2018-12-13T03:34:27.099Z,30.58
2018-12-13T03:35:27.132Z,30.58
2018-12-13T03:37:20.822Z,30.48
2018-12-13T03:38:20.098Z,30.67
2018-12-13T03:40:13.045Z,30.67
2018-12-13T03:41:13.071Z,30.67
2018-12-13T03:43:06.027Z,30.58
2018-12-13T03:44:06.049Z,30.67
2018-12-13T03:45:59.004Z,30.67
2018-12-13T03:46:59.018Z,30.48
2018-12-13T03:48:51.964Z,30.58
2018-12-13T03:49:51.993Z,30.77
2018-12-13T03:51:44.978Z,30.58
2018-12-13T03:52:44.964Z,30.58
2018-12-13T03:54:37.995Z,30.58
2018-12-13T03:55:37.934Z,30.48
2018-12-13T03:57:30.894Z,30.58
2018-12-13T03:58:30.915Z,30.58
2018-12-13T04:00:23.860Z,30.58
2018-12-13T04:01:23.885Z,30.58
2018-12-13T04:03:16.843Z,30.87
2018-12-13T04:04:16.861Z,30.58
2018-12-13T04:06:09.829Z,30.48
2018-12-13T04:07:09.841Z,30.48
2018-12-13T04:09:02.798Z,30.58
2018-12-13T04:10:02.818Z,30.77
2018-12-13T04:11:55.761Z,30.67
2018-12-13T04:12:55.779Z,30.58
2018-12-13T04:14:48.728Z,30.48
2018-12-13T04:15:48.759Z,30.87
2018-12-13T04:17:41.707Z,30.77
2018-12-13T04:18:41.733Z,30.48
2018-12-13T04:20:34.689Z,30.58
2018-12-13T04:21:34.713Z,30.96
2018-12-13T04:23:27.667Z,30.96
2018-12-13T04:24:27.685Z,30.96
2018-12-13T04:26:20.630Z,31.06
2018-12-13T04:27:20.729Z,31.15
2018-12-13T04:29:13.611Z,31.06
2018-12-13T04:30:13.630Z,31.15
2018-12-13T04:32:06.585Z,31.14
2018-12-13T04:33:06.610Z,31.15
2018-12-13T04:34:59.547Z,31.04
2018-12-13T04:35:59.581Z,30.96
2018-12-13T04:37:52.533Z,31.25
2018-12-13T04:38:52.550Z,31.33
2018-12-13T04:40:45.490Z,31.25
2018-12-13T04:41:45.522Z,30.96
2018-12-13T04:43:38.471Z,31.25
2018-12-13T04:44:38.492Z,31.35
2018-12-13T04:46:31.437Z,31.06
2018-12-13T04:47:31.462Z,31.06
2018-12-13T04:49:24.494Z,31.15
2018-12-13T04:50:24.439Z,31.15
2018-12-13T04:52:17.406Z,30.96
2018-12-13T04:53:18.474Z,30.87
2018-12-13T04:55:10.356Z,30.96
2018-12-13T04:56:10.388Z,31.06
2018-12-13T04:58:03.338Z,30.87
2018-12-13T04:59:03.357Z,30.96
2018-12-13T05:00:56.313Z,31.15
2018-12-13T05:01:56.344Z,31.06
2018-12-13T05:03:49.290Z,30.96
2018-12-13T05:04:49.311Z,30.87
2018-12-13T05:06:42.253Z,30.87
2018-12-13T05:07:42.284Z,31.06
2018-12-13T05:09:35.238Z,30.96
2018-12-13T05:10:35.258Z,31.06
2018-12-13T05:12:28.203Z,31.15
2018-12-13T05:13:28.233Z,30.94
2018-12-13T05:15:21.183Z,31.35
2018-12-13T05:16:21.206Z,31.33
2018-12-13T05:18:14.158Z,31.06
2018-12-13T05:19:14.180Z,31.06
2018-12-13T05:21:07.123Z,31.06
2018-12-13T05:22:07.155Z,31.06
2018-12-13T05:24:00.113Z,30.58
2018-12-13T05:25:00.134Z,30.96
2018-12-13T05:26:53.088Z,30.58
2018-12-13T05:27:53.178Z,30.67
2018-12-13T05:29:46.063Z,30.96
2018-12-13T05:30:46.086Z,30.87
2018-12-13T05:32:39.029Z,31.06
2018-12-13T05:33:39.058Z,30.96
2018-12-13T05:35:32.509Z,30.77
2018-12-13T05:36:32.532Z,30.87
2018-12-13T05:38:25.491Z,30.58
2018-12-13T05:39:25.513Z,30.59
2018-12-13T05:41:18.460Z,30.58
2018-12-13T05:42:18.488Z,30.49
2018-12-13T05:44:11.442Z,30.69
2018-12-13T05:45:11.465Z,30.58
2018-12-13T05:47:04.410Z,30.69
2018-12-13T05:48:04.439Z,30.69
2018-12-13T05:49:57.406Z,30.59
2018-12-13T05:50:57.423Z,30.49
2018-12-13T05:52:50.368Z,30.59
2018-12-13T05:53:50.404Z,30.59
2018-12-13T05:55:43.354Z,30.69
2018-12-13T05:56:43.373Z,30.59
2018-12-13T05:58:36.328Z,30.79
2018-12-13T05:59:36.349Z,30.69
2018-12-13T06:01:29.289Z,30.79
2018-12-13T06:02:29.319Z,30.79
2018-12-13T06:04:22.274Z,30.79
2018-12-13T06:05:22.293Z,30.69
2018-12-13T06:07:15.235Z,30.79
2018-12-13T06:08:15.267Z,30.79
2018-12-13T06:10:08.253Z,30.79
2018-12-13T06:11:08.276Z,30.79
2018-12-13T06:13:01.218Z,30.88
2018-12-13T06:14:01.249Z,30.69
2018-12-13T06:15:54.208Z,30.69
2018-12-13T06:16:54.223Z,30.69
2018-12-13T06:18:47.175Z,30.79
2018-12-13T06:19:47.200Z,30.80
2018-12-13T06:21:40.142Z,30.88
2018-12-13T06:22:40.170Z,30.69
2018-12-13T06:24:33.123Z,30.59
2018-12-13T06:25:33.146Z,30.51
2018-12-13T06:27:26.090Z,30.61
2018-12-13T06:28:26.121Z,30.61
2018-12-13T06:30:19.091Z,30.61
2018-12-13T06:31:19.089Z,30.51
2018-12-13T06:33:12.043Z,30.32
2018-12-13T06:34:12.068Z,30.51
2018-12-13T06:36:05.026Z,29.55
2018-12-13T06:37:05.046Z,30.03
2018-12-13T06:38:58.022Z,29.83
2018-12-13T06:39:58.023Z,30.22
2018-12-13T06:41:50.967Z,30.12
2018-12-13T06:42:50.994Z,29.93
2018-12-13T06:44:43.951Z,30.12
2018-12-13T06:45:43.969Z,30.12
2018-12-13T06:47:37.423Z,30.22
2018-12-13T06:48:37.454Z,30.03
2018-12-13T06:50:30.901Z,27.80
2018-12-13T06:51:30.921Z,27.70
2018-12-13T06:53:23.868Z,29.05
2018-12-13T06:54:23.896Z,29.05
2018-12-13T06:56:16.844Z,29.24
2018-12-13T06:57:16.868Z,29.53
2018-12-13T06:59:09.815Z,29.25
2018-12-13T07:00:09.845Z,29.25
2018-12-13T07:02:02.796Z,29.35
2018-12-13T07:03:02.829Z,29.35
2018-12-13T07:04:55.773Z,29.16
2018-12-13T07:05:55.794Z,29.45
2018-12-13T07:07:49.247Z,29.45
2018-12-13T07:08:49.273Z,29.25
2018-12-13T07:10:42.724Z,29.25
2018-12-13T07:11:42.750Z,29.45
2018-12-13T07:13:35.696Z,29.35
2018-12-13T07:14:35.725Z,29.06
2018-12-13T07:16:29.186Z,29.06
2018-12-13T07:17:29.201Z,29.25
2018-12-13T07:19:22.145Z,29.06
2018-12-13T07:20:22.177Z,29.06
2018-12-13T07:22:15.132Z,28.87
2018-12-13T07:23:15.153Z,29.25
2018-12-13T07:25:08.107Z,29.06
2018-12-13T07:26:08.129Z,29.06
2018-12-13T07:28:01.075Z,29.06
2018-12-13T07:29:01.107Z,29.08
2018-12-13T07:30:54.060Z,29.25
2018-12-13T07:31:54.082Z,29.16
2018-12-13T07:33:47.028Z,29.06
2018-12-13T07:34:47.056Z,28.98
2018-12-13T07:36:40.019Z,29.08
2018-12-13T07:37:40.034Z,28.87
2018-12-13T07:39:32.988Z,29.06
2018-12-13T07:40:33.011Z,29.08
2018-12-13T07:42:25.963Z,28.98
2018-12-13T07:43:25.988Z,28.98
2018-12-13T07:45:18.943Z,29.36
2018-12-13T07:46:18.964Z,29.17
2018-12-13T07:48:11.913Z,29.17
2018-12-13T07:49:11.940Z,29.17
2018-12-13T07:51:04.893Z,29.08
2018-12-13T07:52:04.915Z,29.08
2018-12-13T07:53:57.861Z,28.98
2018-12-13T07:54:57.895Z,28.88
2018-12-13T07:56:50.847Z,29.08
2018-12-13T07:57:50.869Z,28.98
2018-12-13T07:59:43.819Z,28.98
2018-12-13T08:00:43.847Z,29.08
2018-12-13T08:02:36.804Z,29.17
2018-12-13T08:03:36.823Z,29.27
2018-12-13T08:05:30.269Z,29.17
2018-12-13T08:06:30.291Z,29.27
2018-12-13T08:08:23.242Z,29.08
2018-12-13T08:09:23.270Z,29.08
2018-12-13T08:11:16.222Z,29.17
2018-12-13T08:12:16.242Z,29.17
2018-12-13T08:14:09.191Z,29.17
2018-12-13T08:15:09.221Z,29.27
2018-12-13T08:17:02.175Z,29.17
2018-12-13T08:18:02.195Z,28.98
2018-12-13T08:19:55.141Z,29.27
2018-12-13T08:20:55.171Z,29.17
2018-12-13T08:22:48.131Z,29.17
2018-12-13T08:23:48.154Z,28.98
2018-12-13T08:25:41.176Z,29.17
2018-12-13T08:26:41.130Z,29.08
2018-12-13T08:28:34.567Z,29.08
2018-12-13T08:29:34.606Z,28.98
2018-12-13T08:31:27.550Z,28.98
2018-12-13T08:32:27.571Z,29.08
2018-12-13T08:34:20.518Z,28.98
2018-12-13T08:35:20.550Z,29.08
2018-12-13T08:37:13.507Z,29.08
2018-12-13T08:38:13.527Z,29.08
2018-12-13T08:40:06.478Z,29.08
2018-12-13T08:41:06.510Z,29.08
2018-12-13T08:42:59.465Z,29.08
2018-12-13T08:43:59.488Z,29.17
2018-12-13T08:45:52.439Z,29.17
2018-12-13T08:46:52.461Z,28.98
2018-12-13T08:48:45.406Z,29.08
2018-12-13T08:49:45.438Z,28.98
2018-12-13T08:51:38.392Z,28.88
2018-12-13T08:52:38.421Z,29.08
2018-12-13T08:54:31.363Z,29.08
2018-12-13T08:55:31.389Z,29.08
2018-12-13T08:57:24.345Z,28.98
2018-12-13T08:58:24.367Z,28.88
2018-12-13T09:00:17.312Z,29.17
2018-12-13T09:01:17.342Z,29.08
2018-12-13T09:03:10.299Z,29.08
2018-12-13T09:04:10.318Z,28.99
2018-12-13T09:06:03.263Z,28.80
2018-12-13T09:07:03.296Z,29.09
2018-12-13T09:08:56.250Z,28.89
2018-12-13T09:09:56.271Z,28.89
2018-12-13T09:11:49.229Z,29.09
2018-12-13T09:12:49.245Z,28.99
2018-12-13T09:14:42.195Z,28.89
2018-12-13T09:15:42.294Z,28.80
2018-12-13T09:17:35.186Z,28.89
2018-12-13T09:18:35.202Z,29.09
2018-12-13T09:20:28.151Z,28.99
2018-12-13T09:21:28.180Z,28.89
2018-12-13T09:23:21.133Z,28.89
2018-12-13T09:24:21.156Z,28.88
2018-12-13T09:26:14.102Z,28.80
2018-12-13T09:27:14.132Z,28.99
2018-12-13T09:29:07.089Z,29.08
2018-12-13T09:30:07.109Z,28.89
2018-12-13T09:32:00.065Z,28.89
2018-12-13T09:33:00.088Z,28.89
2018-12-13T09:34:53.043Z,28.89
2018-12-13T09:35:53.072Z,28.80
2018-12-13T09:37:47.680Z,28.99
2018-12-13T09:38:46.552Z,28.99
2018-12-13T09:40:39.504Z,28.61
2018-12-13T09:41:39.532Z,28.99
2018-12-13T09:43:32.487Z,28.99
2018-12-13T09:44:32.510Z,28.99
2018-12-13T09:46:25.457Z,28.89
2018-12-13T09:47:25.485Z,28.98
2018-12-13T09:49:18.448Z,28.89
2018-12-13T09:50:18.461Z,28.89
2018-12-13T09:52:11.420Z,28.99
2018-12-13T09:53:11.442Z,28.99
2018-12-13T09:55:05.747Z,28.80
2018-12-13T09:56:04.421Z,28.89
2018-12-13T09:57:57.378Z,28.70
2018-12-13T09:58:57.397Z,29.09
2018-12-13T10:00:50.349Z,28.99
2018-12-13T10:01:50.378Z,28.99
2018-12-13T10:03:43.333Z,28.61
2018-12-13T10:04:43.354Z,28.89
2018-12-13T10:06:36.301Z,28.80
2018-12-13T10:07:36.332Z,28.70
2018-12-13T10:09:29.289Z,28.61
2018-12-13T10:10:29.308Z,28.80
2018-12-13T10:12:22.265Z,28.70
2018-12-13T10:13:22.288Z,29.09
2018-12-13T10:15:15.244Z,28.80
2018-12-13T10:16:15.270Z,28.80
2018-12-13T10:18:08.712Z,28.80
2018-12-13T10:19:08.735Z,28.80
2018-12-13T10:21:01.679Z,28.80
2018-12-13T10:22:01.710Z,28.80
2018-12-13T10:23:54.670Z,28.61
2018-12-13T10:24:54.688Z,28.51
2018-12-13T10:26:47.635Z,28.61
2018-12-13T10:27:47.666Z,28.70
2018-12-13T10:29:40.633Z,28.80
2018-12-13T10:30:40.649Z,28.80
2018-12-13T10:32:33.596Z,28.80
2018-12-13T10:33:33.624Z,28.80
2018-12-13T10:35:26.580Z,28.80
2018-12-13T10:36:26.602Z,28.80
2018-12-13T10:38:19.559Z,28.80
2018-12-13T10:39:19.583Z,28.69
2018-12-13T10:41:13.017Z,28.89
2018-12-13T10:42:13.045Z,28.89
2018-12-13T10:44:06.002Z,28.98
2018-12-13T10:45:06.023Z,28.59
2018-12-13T10:46:58.974Z,28.89
2018-12-13T10:47:59.001Z,28.89
2018-12-13T10:49:51.960Z,28.89
2018-12-13T10:50:51.977Z,29.19
2018-12-13T10:52:44.935Z,28.99
2018-12-13T10:53:44.965Z,28.89
2018-12-13T10:55:38.419Z,28.80
2018-12-13T10:56:38.448Z,28.89
2018-12-13T10:58:31.388Z,28.89
2018-12-13T10:59:31.410Z,28.89
2018-12-13T11:01:24.358Z,28.80
2018-12-13T11:02:24.391Z,28.70
2018-12-13T11:04:17.342Z,28.80
2018-12-13T11:05:17.362Z,28.80
2018-12-13T11:07:10.314Z,28.88
2018-12-13T11:08:10.345Z,29.09
2018-12-13T11:10:03.300Z,28.89
2018-12-13T11:11:03.322Z,28.89
2018-12-13T11:12:56.265Z,28.99
2018-12-13T11:13:56.295Z,28.80
2018-12-13T11:15:49.254Z,28.99
2018-12-13T11:16:49.276Z,28.99
2018-12-13T11:18:42.242Z,29.08
2018-12-13T11:19:42.252Z,28.88
2018-12-13T11:21:48.046Z,29.08
2018-12-13T11:22:47.609Z,28.98
2018-12-13T11:24:52.723Z,28.98
2018-12-13T11:25:52.748Z,29.08
2018-12-13T11:27:50.969Z,28.98
2018-12-13T11:28:50.972Z,28.98
2018-12-13T11:30:44.691Z,29.09
2018-12-13T11:31:44.653Z,28.99
2018-12-13T11:33:37.616Z,29.19
2018-12-13T11:34:37.638Z,28.98
2018-12-13T11:36:30.601Z,28.98
2018-12-13T11:37:30.624Z,28.89
2018-12-13T11:39:23.577Z,28.99
2018-12-13T11:40:23.599Z,29.28
2018-12-13T11:42:16.549Z,28.99
2018-12-13T11:43:16.579Z,29.19
2018-12-13T11:45:09.541Z,29.19
2018-12-13T11:46:09.559Z,28.99
2018-12-13T11:48:03.903Z,29.28
2018-12-13T11:49:03.932Z,29.09
2018-12-13T11:50:57.376Z,29.09
2018-12-13T11:51:57.398Z,29.28
2018-12-13T11:53:50.360Z,29.28
2018-12-13T11:54:50.379Z,29.28
2018-12-13T11:56:43.333Z,29.28
2018-12-13T11:57:43.355Z,29.28
2018-12-13T11:59:36.314Z,29.28
2018-12-13T12:00:36.334Z,29.27
2018-12-13T12:02:29.769Z,29.27
2018-12-13T12:03:29.801Z,29.46
2018-12-13T12:05:23.292Z,29.46
2018-12-13T12:06:23.290Z,29.56
2018-12-13T12:08:16.740Z,29.46
2018-12-13T12:09:16.774Z,29.36
2018-12-13T12:11:09.731Z,29.08
2018-12-13T12:12:09.748Z,29.08
2018-12-13T12:14:02.699Z,29.36
2018-12-13T12:15:03.349Z,29.09
2018-12-13T12:16:56.192Z,29.28
2018-12-13T12:17:56.213Z,29.17
2018-12-13T12:19:49.660Z,29.27
2018-12-13T12:20:49.682Z,28.99
2018-12-13T12:22:43.147Z,29.27
2018-12-13T12:23:43.164Z,29.08
2018-12-13T12:25:36.178Z,29.38
2018-12-13T12:26:36.139Z,29.08
2018-12-13T12:28:29.592Z,28.88
2018-12-13T12:29:29.622Z,28.78
2018-12-13T12:31:22.579Z,28.59
2018-12-13T12:32:22.601Z,28.69
2018-12-13T12:34:16.051Z,28.70
2018-12-13T12:35:16.083Z,28.61
2018-12-13T12:37:09.531Z,28.78
2018-12-13T12:38:09.548Z,28.70
2018-12-13T12:40:02.996Z,28.99
2018-12-13T12:41:03.022Z,28.70
2018-12-13T12:42:56.466Z,28.80
2018-12-13T12:43:56.491Z,28.89
2018-12-13T12:45:49.452Z,28.80
2018-12-13T12:46:49.474Z,28.89
2018-12-13T12:48:42.917Z,29.09
2018-12-13T12:49:42.949Z,29.09
2018-12-13T12:51:36.392Z,28.99
2018-12-13T12:52:36.416Z,28.99
2018-12-13T12:54:29.869Z,28.89
2018-12-13T12:55:29.901Z,28.89
2018-12-13T12:57:23.358Z,28.61
2018-12-13T12:58:23.373Z,28.89
2018-12-13T13:00:16.829Z,28.80
2018-12-13T13:01:16.837Z,29.09
2018-12-13T13:03:09.790Z,28.99
2018-12-13T13:04:09.817Z,28.99
2018-12-13T13:06:03.275Z,28.70
2018-12-13T13:07:03.293Z,29.09
2018-12-13T13:09:08.409Z,29.09
2018-12-13T13:10:08.438Z,28.89
2018-12-13T13:12:01.893Z,28.89
2018-12-13T13:13:01.916Z,28.89
2018-12-13T13:14:55.373Z,28.89
2018-12-13T13:15:55.396Z,29.09
2018-12-13T13:17:48.860Z,28.99
2018-12-13T13:18:48.881Z,28.80
2018-12-13T13:20:42.328Z,28.99
2018-12-13T13:21:42.358Z,28.99
2018-12-13T13:23:35.820Z,28.89
2018-12-13T13:24:35.840Z,28.89
2018-12-13T13:26:29.301Z,29.09
2018-12-13T13:27:29.322Z,28.99
2018-12-13T13:29:22.764Z,29.09
2018-12-13T13:30:22.794Z,29.17
2018-12-13T13:32:16.250Z,29.19
2018-12-13T13:33:16.280Z,29.09
2018-12-13T13:35:09.725Z,29.19
2018-12-13T13:36:09.754Z,29.19
2018-12-13T13:38:03.216Z,28.99
2018-12-13T13:39:03.227Z,29.19
2018-12-13T13:40:56.667Z,29.28
2018-12-13T13:41:56.696Z,29.28
2018-12-13T13:43:50.150Z,29.47
2018-12-13T13:44:50.171Z,29.19
2018-12-13T13:46:43.643Z,29.19
2018-12-13T13:47:43.667Z,29.28
2018-12-13T13:49:37.106Z,29.28
2018-12-13T13:50:37.141Z,29.47
2018-12-13T13:52:30.603Z,29.36
2018-12-13T13:53:30.624Z,29.27
2018-12-13T13:55:24.075Z,29.47
2018-12-13T13:56:24.105Z,29.38
2018-12-13T13:58:17.565Z,29.47
2018-12-13T13:59:17.587Z,29.36
2018-12-13T14:01:11.033Z,29.27
2018-12-13T14:02:11.060Z,29.27
2018-12-13T14:04:04.515Z,29.36
2018-12-13T14:05:04.530Z,29.27
2018-12-13T14:06:57.998Z,29.46
2018-12-13T14:07:58.008Z,29.56
2018-12-13T14:09:51.457Z,29.46
2018-12-13T14:10:51.478Z,29.46
2018-12-13T14:12:44.957Z,29.56
2018-12-13T14:13:44.962Z,29.46
2018-12-13T14:15:38.414Z,29.85
2018-12-13T14:16:38.441Z,29.66
2018-12-13T14:18:31.904Z,29.56
2018-12-13T14:19:31.926Z,29.46
2018-12-13T14:21:25.384Z,29.46
2018-12-13T14:22:25.414Z,29.56
2018-12-13T14:24:18.906Z,29.46
2018-12-13T14:25:18.895Z,29.46
2018-12-13T14:27:12.354Z,29.56
2018-12-13T14:28:12.386Z,29.56
2018-12-13T14:30:05.843Z,29.46
2018-12-13T14:31:05.863Z,29.27
2018-12-13T14:32:59.320Z,29.36
2018-12-13T14:33:59.344Z,29.27
2018-12-13T14:35:52.796Z,29.27
2018-12-13T14:36:52.824Z,29.36
2018-12-13T14:38:46.288Z,29.36
2018-12-13T14:39:46.296Z,29.27
2018-12-13T14:41:39.752Z,29.46
2018-12-13T14:42:39.780Z,29.46
2018-12-13T14:44:33.241Z,29.27
2018-12-13T14:45:33.264Z,29.17
2018-12-13T14:47:26.718Z,29.36
2018-12-13T14:48:26.745Z,29.27
2018-12-13T14:50:20.194Z,29.36
2018-12-13T14:51:20.215Z,29.17
2018-12-13T14:53:13.674Z,29.36
2018-12-13T14:54:13.694Z,29.27
2018-12-13T14:56:07.139Z,29.17
2018-12-13T14:57:07.165Z,29.36
2018-12-13T14:59:00.614Z,29.36
2018-12-13T15:00:00.635Z,29.56
2018-12-13T15:01:54.081Z,29.46
2018-12-13T15:02:54.111Z,29.27
2018-12-13T15:04:47.570Z,29.36
2018-12-13T15:05:47.590Z,29.36
2018-12-13T15:07:41.035Z,29.27
2018-12-13T15:08:41.057Z,29.36
2018-12-13T15:10:34.495Z,29.47
2018-12-13T15:11:34.528Z,29.27
2018-12-13T15:13:27.987Z,29.09
2018-12-13T15:14:28.004Z,29.28
2018-12-13T15:16:21.463Z,29.38
2018-12-13T15:17:21.493Z,29.09
2018-12-13T15:19:14.946Z,29.19
2018-12-13T15:20:14.970Z,29.36
2018-12-13T15:22:08.410Z,29.27
2018-12-13T15:23:08.440Z,29.17
2018-12-13T15:25:01.901Z,29.08
2018-12-13T15:26:01.920Z,29.28
2018-12-13T15:27:55.439Z,29.27
2018-12-13T15:28:55.402Z,29.17
2018-12-13T15:30:48.850Z,29.27
2018-12-13T15:31:48.881Z,29.36
2018-12-13T15:33:42.339Z,29.46
2018-12-13T15:34:42.360Z,29.36
2018-12-13T15:36:35.801Z,29.17
2018-12-13T15:37:35.831Z,29.38
2018-12-13T15:39:29.289Z,29.38
2018-12-13T15:40:29.308Z,29.36
2018-12-13T15:42:22.746Z,29.27
2018-12-13T15:43:22.775Z,29.17
2018-12-13T15:45:16.234Z,29.08
2018-12-13T15:46:16.321Z,29.19
2018-12-13T15:48:09.716Z,29.19
2018-12-13T15:49:09.728Z,29.19
2018-12-13T15:51:03.184Z,29.17
2018-12-13T15:52:03.203Z,28.98
2018-12-13T15:53:56.663Z,29.27
2018-12-13T15:54:56.680Z,29.17
2018-12-13T15:56:50.132Z,28.99
2018-12-13T15:57:50.152Z,29.08
2018-12-13T15:59:43.627Z,29.19
2018-12-13T16:00:43.646Z,29.19
2018-12-13T16:02:37.116Z,28.99
2018-12-13T16:03:37.142Z,29.19
2018-12-13T16:05:30.595Z,29.19
2018-12-13T16:06:30.613Z,29.19
2018-12-13T16:08:24.075Z,28.99
2018-12-13T16:09:24.108Z,29.08
2018-12-13T16:11:17.575Z,29.09
2018-12-13T16:12:17.581Z,29.27
2018-12-13T16:14:11.035Z,28.99
2018-12-13T16:15:11.054Z,28.99
2018-12-13T16:17:04.500Z,29.08
2018-12-13T16:18:04.523Z,29.09
2018-12-13T16:19:57.970Z,29.36
2018-12-13T16:20:57.994Z,29.28
2018-12-13T16:22:51.437Z,29.09
2018-12-13T16:23:51.467Z,28.98
2018-12-13T16:25:44.927Z,29.09
2018-12-13T16:26:44.937Z,28.98
2018-12-13T16:28:38.387Z,28.99
2018-12-13T16:29:38.417Z,29.19
2018-12-13T16:31:31.899Z,29.09
2018-12-13T16:32:31.893Z,29.08
2018-12-13T16:34:25.351Z,28.99
2018-12-13T16:35:25.378Z,28.99
2018-12-13T16:37:18.817Z,29.09
2018-12-13T16:38:18.845Z,29.09
2018-12-13T16:40:12.310Z,28.98
2018-12-13T16:41:12.322Z,29.09
2018-12-13T16:43:05.783Z,29.09
2018-12-13T16:44:05.793Z,28.98
2018-12-13T16:45:59.252Z,29.09
2018-12-13T16:46:59.271Z,29.09
2018-12-13T16:48:52.713Z,28.99
2018-12-13T16:49:52.742Z,28.99
2018-12-13T16:51:46.209Z,29.09
2018-12-13T16:52:46.231Z,29.09
2018-12-13T16:54:39.684Z,29.09
2018-12-13T16:55:39.711Z,28.89
2018-12-13T16:57:33.176Z,29.09
2018-12-13T16:58:33.195Z,28.99
2018-12-13T17:00:26.647Z,29.09
2018-12-13T17:01:26.668Z,28.89
2018-12-13T17:03:20.110Z,29.09
2018-12-13T17:04:20.140Z,28.99
2018-12-13T17:06:13.594Z,28.88
2018-12-13T17:07:13.616Z,29.08
2018-12-13T17:09:07.052Z,28.99
2018-12-13T17:10:07.092Z,28.89
2018-12-13T17:12:00.544Z,28.89
2018-12-13T17:13:00.556Z,28.89
2018-12-13T17:14:53.505Z,28.89
2018-12-13T17:15:53.531Z,28.89
2018-12-13T17:17:46.492Z,26.26
2018-12-13T17:18:46.519Z,26.54
2018-12-13T17:20:39.991Z,28.29
2018-12-13T17:21:39.990Z,28.09
2018-12-13T17:23:33.431Z,27.71
2018-12-13T17:24:33.465Z,27.72
2018-12-13T17:26:26.426Z,27.62
2018-12-13T17:27:26.450Z,27.62
2018-12-13T17:29:19.886Z,27.53
2018-12-13T17:30:19.917Z,27.73
2018-12-13T17:32:13.372Z,27.55
2018-12-13T17:33:13.387Z,27.83
2018-12-13T17:35:06.343Z,27.93
2018-12-13T17:36:06.370Z,27.93
2018-12-13T17:37:59.322Z,28.03
2018-12-13T17:38:59.345Z,28.13
2018-12-13T17:40:52.299Z,28.31
2018-12-13T17:41:52.325Z,28.22
2018-12-13T17:43:45.271Z,28.13
2018-12-13T17:44:45.299Z,28.61
2018-12-13T17:46:38.253Z,28.51
2018-12-13T17:47:38.273Z,28.78
2018-12-13T17:49:31.222Z,28.61
2018-12-13T17:50:31.246Z,28.89
2018-12-13T17:52:24.722Z,29.28
2018-12-13T17:53:24.723Z,29.47
2018-12-13T17:55:19.174Z,29.57
2018-12-13T17:56:19.191Z,29.77
2018-12-13T17:58:12.670Z,29.66
2018-12-13T17:59:12.699Z,29.86
2018-12-13T18:01:06.165Z,29.77
2018-12-13T18:02:06.157Z,29.77
2018-12-13T18:03:59.625Z,29.57
2018-12-13T18:04:59.637Z,29.77
2018-12-13T18:06:52.606Z,29.77
2018-12-13T18:07:52.627Z,29.86
2018-12-13T18:09:45.586Z,29.77
2018-12-13T18:10:45.610Z,29.77
2018-12-13T18:12:38.572Z,29.57
2018-12-13T18:13:38.588Z,29.67
2018-12-13T18:15:31.549Z,30.25
2018-12-13T18:16:31.595Z,29.96
2018-12-13T18:18:24.528Z,29.67
2018-12-13T18:19:24.546Z,30.05
2018-12-13T18:21:17.501Z,29.88
2018-12-13T18:22:17.518Z,29.88
2018-12-13T18:24:10.475Z,29.77
2018-12-13T18:25:10.497Z,29.57
2018-12-13T18:27:03.466Z,30.05
2018-12-13T18:28:03.479Z,29.77
2018-12-13T18:29:56.426Z,29.57
2018-12-13T18:30:56.454Z,29.96
2018-12-13T18:32:49.412Z,29.96
2018-12-13T18:33:49.435Z,29.59
2018-12-13T18:35:42.384Z,29.49